Time;durP1;ratioP1;P1;durP2;ratioP2;P2;SDS_P1;SDS_P2;PMS_P1;PMS_P2;Temp;Humidity;BMP_temperature;BMP_pressure;BME280_temperature;BME280_humidity;BME280_pressure;Samples;Min_cycle;Max_cycle;Signal;HPM_P1;HPM_P2
2022/05/17 00:02:44;;;;;;;30.55;10.30;;;;;;;;;;6108879;23;20359;-86
2022/05/17 00:05:18;;;;;;;28.52;10.23;;;;;;;;;;6085663;23;20018;-85
2022/05/17 00:07:44;;;;;;;21.80;8.85;;;;;;;;;;6085817;23;20014;-85
2022/05/17 00:10:11;;;;;;;24.05;8.98;;;;;;;;;;6084652;23;20022;-85
2022/05/17 00:12:38;;;;;;;25.45;8.70;;;;;;;;;;6082880;23;20125;-85
2022/05/17 00:15:04;;;;;;;26.52;9.02;;;;;;;;;;6086126;23;20024;-86
2022/05/17 00:17:37;;;;;;;22.75;8.40;;;;;;;;;;6036616;23;20057;-86
2022/05/17 00:20:09;;;;;;;24.17;9.00;;;15.60;99.90;;;;;;6084315;23;20386;-86
2022/05/17 00:22:36;;;;;;;30.02;8.98;;;15.10;99.90;;;;;;6035796;23;20063;-86
2022/05/17 00:25:02;;;;;;;26.48;8.75;;;15.10;99.90;;;;;;6036235;23;20072;-85
2022/05/17 00:27:28;;;;;;;29.33;8.52;;;15.00;99.90;;;;;;6038093;23;20014;-86
2022/05/17 00:29:54;;;;;;;32.22;9.40;;;15.00;99.90;;;;;;6014248;23;20018;-86
2022/05/17 00:32:20;;;;;;;21.48;8.70;;;15.00;99.90;;;;;;6012693;23;20540;-85
2022/05/17 00:34:46;;;;;;;21.17;8.02;;;15.00;99.90;;;;;;6016041;23;20022;-86
2022/05/17 00:37:13;;;;;;;28.48;8.40;;;15.00;99.90;;;;;;6042486;23;20022;-86
2022/05/17 00:39:39;;;;;;;28.83;8.63;;;15.00;99.90;;;;;;6065542;23;20018;-87
2022/05/17 00:42:05;;;;;;;26.77;8.70;;;14.90;99.90;;;;;;6040680;23;20109;-86
2022/05/17 00:44:43;;;;;;;27.60;8.52;;;14.90;99.90;;;;;;6062763;23;20014;-87
2022/05/17 00:47:12;;;;;;;24.40;8.75;;;14.90;99.90;;;;;;6064874;23;20073;-87
2022/05/17 00:49:40;;;;;;;28.23;9.65;;;14.80;99.90;;;;;;6062900;23;20113;-86
2022/05/17 00:52:12;;;;;;;30.10;9.50;;;14.80;99.90;;;;;;6064055;23;20025;-86
2022/05/17 00:54:40;;;;;;;25.63;9.23;;;14.80;99.90;;;;;;6061504;23;20014;-85
2022/05/17 00:57:33;;;;;;;28.50;9.40;;;14.80;99.90;;;;;;6061762;23;20025;-86
2022/05/17 01:00:04;;;;;;;30.75;9.82;;;14.80;99.90;;;;;;6079439;23;20019;-86
2022/05/17 01:02:33;;;;;;;28.42;10.18;;;14.80;99.90;;;;;;6032958;23;20057;-86
2022/05/17 01:05:01;;;;;;;31.42;10.88;;;14.80;99.90;;;;;;6028156;23;20018;-85
2022/05/17 01:07:37;;;;;;;25.00;9.40;;;14.80;99.90;;;;;;6008472;23;20014;-85
2022/05/17 01:10:04;;;;;;;27.67;10.43;;;14.70;99.90;;;;;;6032046;23;20018;-85
2022/05/17 01:12:29;;;;;;;29.48;10.48;;;14.70;99.90;;;;;;6031823;23;20022;-85
2022/05/17 01:14:58;;;;;;;24.70;10.25;;;14.70;99.90;;;;;;6008062;23;20263;-86
2022/05/17 01:17:32;;;;;;;31.08;11.05;;;;;;;;;;6029264;23;20018;-86
2022/05/17 01:19:59;;;;;;;30.00;10.73;;;;;;;;;;6031817;23;20451;-86
2022/05/17 01:22:25;;;;;;;28.45;11.77;;;;;;;;;;6009458;23;20014;-86
2022/05/17 01:24:52;;;;;;;36.17;12.10;;;;;;;;;;6033450;23;20018;-86
2022/05/17 01:27:23;;;;;;;25.98;12.25;;;;;;;;;;6030954;23;20022;-86
2022/05/17 01:29:50;;;;;;;25.92;12.45;;;;;;;;;;6031965;23;20010;-85
2022/05/17 01:32:16;;;;;;;29.52;11.95;;;;;;;;;;6032914;23;20022;-85
2022/05/17 01:34:43;;;;;;;30.52;12.63;;;;;;;;;;6009575;23;20105;-85
2022/05/17 01:37:13;;;;;;;29.27;13.05;;;;;;;;;;6032276;23;20062;-85
2022/05/17 01:39:39;;;;;;;28.08;12.80;;;14.70;99.90;;;;;;6011663;23;20014;-85
2022/05/17 01:42:14;;;;;;;33.88;13.75;;;14.50;99.90;;;;;;6032245;23;20134;-86
2022/05/17 01:44:41;;;;;;;30.92;14.27;;;14.40;99.90;;;;;;6031438;23;20015;-86
2022/05/17 01:47:07;;;;;;;36.20;13.48;;;14.40;99.90;;;;;;6006199;23;20016;-87
2022/05/17 01:49:33;;;;;;;29.48;13.80;;;14.40;99.90;;;;;;6008779;23;20018;-88
2022/05/17 01:52:02;;;;;;;32.45;14.38;;;14.30;99.90;;;;;;6008773;23;20025;-86
2022/05/17 01:54:27;;;;;;;31.77;14.77;;;14.30;99.90;;;;;;6006068;23;20018;-86
2022/05/17 01:56:54;;;;;;;33.30;13.50;;;;;;;;;;6009920;23;20532;-86
2022/05/17 01:59:20;;;;;;;27.98;14.00;;;;;;;;;;6055102;23;20041;-86
2022/05/17 02:01:46;;;;;;;32.20;14.60;;;14.30;99.90;;;;;;6061993;23;20022;-87
2022/05/17 02:04:13;;;;;;;26.70;14.75;;;14.20;99.90;;;;;;6064070;23;20021;-87
2022/05/17 02:06:39;;;;;;;26.17;14.20;;;14.10;99.90;;;;;;6064497;23;20014;-87
2022/05/17 02:09:05;;;;;;;28.15;14.30;;;14.10;99.90;;;;;;6059019;23;20487;-87
2022/05/17 02:11:31;;;;;;;37.28;14.60;;;14.00;99.90;;;;;;6065683;23;20024;-87
2022/05/17 02:13:57;;;;;;;33.97;15.45;;;14.00;99.90;;;;;;6043913;23;20512;-86
2022/05/17 02:16:23;;;;;;;33.85;14.95;;;14.00;99.90;;;;;;6072172;23;20017;-87
2022/05/17 02:18:50;;;;;;;35.30;15.40;;;13.90;99.90;;;;;;6060237;23;20324;-88
2022/05/17 02:21:16;;;;;;;32.30;15.80;;;13.90;99.90;;;;;;6085019;23;20022;-86
2022/05/17 02:23:42;;;;;;;32.10;15.20;;;13.90;99.90;;;;;;6037227;23;20014;-86
2022/05/17 02:26:08;;;;;;;36.30;14.80;;;13.90;99.90;;;;;;6062629;23;20084;-87
2022/05/17 02:28:35;;;;;;;33.75;15.60;;;13.80;99.90;;;;;;6059993;23;20037;-86
2022/05/17 02:31:01;;;;;;;34.70;15.50;;;13.80;99.90;;;;;;6037953;23;20100;-87
2022/05/17 02:33:27;;;;;;;29.52;15.00;;;13.80;99.90;;;;;;6060273;23;20025;-87
2022/05/17 02:35:53;;;;;;;37.55;14.95;;;13.80;99.90;;;;;;6087336;23;20021;-87
2022/05/17 02:38:19;;;;;;;32.92;14.85;;;13.70;99.90;;;;;;6061798;23;20097;-87
2022/05/17 02:40:45;;;;;;;31.63;15.00;;;13.70;99.90;;;;;;6059901;23;20255;-87
2022/05/17 02:43:13;;;;;;;33.30;15.45;;;13.70;99.90;;;;;;6061763;23;20010;-87
2022/05/17 02:45:39;;;;;;;36.75;15.63;;;13.70;99.90;;;;;;6061835;23;20018;-87
2022/05/17 02:48:05;;;;;;;28.85;14.90;;;13.60;99.90;;;;;;6037788;23;20018;-88
2022/05/17 02:50:32;;;;;;;37.92;14.88;;;13.60;99.90;;;;;;6055282;23;20022;-89
2022/05/17 02:52:58;;;;;;;31.77;14.15;;;13.60;99.90;;;;;;6060902;23;20029;-86
2022/05/17 02:55:24;;;;;;;29.67;14.98;;;13.60;99.90;;;;;;6036543;23;20022;-86
2022/05/17 02:57:50;;;;;;;29.48;15.32;;;13.60;99.90;;;;;;6058742;23;20018;-87
2022/05/17 03:00:17;;;;;;;37.00;16.45;;;13.60;99.90;;;;;;6057603;23;20451;-87
2022/05/17 03:02:43;;;;;;;30.70;15.15;;;13.60;99.90;;;;;;6059380;23;20018;-87
2022/05/17 03:05:11;;;;;;;33.38;15.57;;;13.50;99.90;;;;;;6084442;23;20014;-87
2022/05/17 03:07:37;;;;;;;34.60;15.68;;;13.40;99.90;;;;;;6062833;23;20028;-87
2022/05/17 03:10:05;;;;;;;35.50;14.48;;;13.50;99.90;;;;;;6055203;23;20009;-87
2022/05/17 03:12:31;;;;;;;32.08;15.25;;;13.40;99.90;;;;;;6087601;23;20014;-87
2022/05/17 03:14:56;;;;;;;33.90;14.98;;;13.40;99.90;;;;;;6062986;23;20075;-87
2022/05/17 03:17:22;;;;;;;25.67;14.40;;;13.40;99.90;;;;;;6062385;23;20372;-87
2022/05/17 03:19:49;;;;;;;40.08;15.13;;;;;;;;;;6037239;23;20046;-86
2022/05/17 03:22:15;;;;;;;33.47;15.43;;;;;;;;;;6058441;23;20092;-87
2022/05/17 03:24:41;;;;;;;33.00;14.65;;;;;;;;;;6082688;23;20018;-87
2022/05/17 03:27:07;;;;;;;32.88;14.77;;;;;;;;;;6057665;23;20021;-87
2022/05/17 03:29:33;;;;;;;41.83;15.55;;;;;;;;;;6084279;23;20096;-87
2022/05/17 03:32:00;;;;;;;32.97;14.40;;;;;;;;;;6057086;23;20021;-87
2022/05/17 03:34:26;;;;;;;31.52;14.40;;;;;;;;;;6063224;23;20126;-87
2022/05/17 03:36:55;;;;;;;30.55;14.73;;;;;;;;;;6066075;23;20049;-86
2022/05/17 03:39:24;;;;;;;36.78;15.50;;;;;;;;;;6059945;23;20459;-87
2022/05/17 03:41:50;;;;;;;34.88;15.07;;;;;;;;;;6058578;23;20347;-86
2022/05/17 03:44:17;;;;;;;32.08;14.93;;;;;;;;;;6059449;23;20022;-86
2022/05/17 03:46:43;;;;;;;40.70;14.75;;;;;;;;;;6063283;23;20018;-86
2022/05/17 03:49:10;;;;;;;36.20;14.55;;;;;;;;;;6060103;23;20018;-87
2022/05/17 03:51:37;;;;;;;33.08;14.05;;;;;;;;;;6057205;23;20022;-86
2022/05/17 03:54:03;;;;;;;32.25;14.68;;;;;;;;;;6058771;23;20061;-86
2022/05/17 03:56:29;;;;;;;29.40;14.77;;;;;;;;;;6062261;23;20101;-86
2022/05/17 03:58:55;;;;;;;35.15;14.23;;;;;;;;;;6060732;23;20072;-86
2022/05/17 04:01:21;;;;;;;31.83;14.20;;;;;;;;;;6058648;23;20018;-86
2022/05/17 04:03:47;;;;;;;34.38;14.13;;;;;;;;;;6033490;23;20044;-84
2022/05/17 04:06:16;;;;;;;39.80;14.88;;;;;;;;;;6085489;23;20018;-84
2022/05/17 04:08:42;;;;;;;37.35;15.63;;;;;;;;;;6061266;23;20098;-83
2022/05/17 04:11:10;;;;;;;26.67;13.68;;;;;;;;;;6082368;23;20021;-85
2022/05/17 04:13:40;;;;;;;32.55;15.18;;;;;;;;;;6031052;23;20018;-84
2022/05/17 04:16:07;;;;;;;37.92;14.90;;;;;;;;;;6083477;23;20033;-84
2022/05/17 04:18:33;;;;;;;35.78;15.20;;;;;;;;;;6035670;23;20018;-84
2022/05/17 04:21:00;;;;;;;34.88;14.80;;;;;;;;;;6039720;23;20108;-83
2022/05/17 04:23:26;;;;;;;38.97;14.90;;;;;;;;;;6032284;23;20021;-84
2022/05/17 04:25:53;;;;;;;33.00;14.35;;;;;;;;;;6034852;23;20014;-84
2022/05/17 04:28:19;;;;;;;28.38;14.50;;;;;;;;;;6083488;23;20026;-84
2022/05/17 04:30:45;;;;;;;37.42;14.70;;;;;;;;;;6084048;23;20089;-84
2022/05/17 04:33:11;;;;;;;33.90;14.02;;;;;;;;;;6084246;23;20025;-84
2022/05/17 04:35:38;;;;;;;38.70;15.15;;;;;;;;;;6085882;23;20025;-83
2022/05/17 04:38:04;;;;;;;35.33;15.32;;;;;;;;;;6087617;23;20028;-84
2022/05/17 04:40:31;;;;;;;33.65;14.10;;;;;;;;;;6033393;23;20026;-84
2022/05/17 04:42:57;;;;;;;33.58;14.57;;;;;;;;;;6083611;23;20014;-84
2022/05/17 04:45:24;;;;;;;34.80;14.20;;;;;;;;;;6079217;23;20018;-83
2022/05/17 04:47:50;;;;;;;32.08;13.95;;;;;;;;;;6083402;23;20584;-84
2022/05/17 04:50:17;;;;;;;36.70;14.35;;;;;;;;;;6084716;23;20025;-84
2022/05/17 04:52:43;;;;;;;29.42;14.23;;;;;;;;;;6079772;23;20017;-84
2022/05/17 04:55:10;;;;;;;33.28;14.50;;;;;;;;;;6079195;23;20029;-85
2022/05/17 04:57:37;;;;;;;35.60;14.30;;;;;;;;;;6079332;23;20356;-84
2022/05/17 05:00:08;;;;;;;28.10;13.50;;;;;;;;;;6076161;23;20097;-85
2022/05/17 05:02:34;;;;;;;30.60;13.57;;;;;;;;;;6053328;23;20018;-84
2022/05/17 05:05:00;;;;;;;31.17;14.38;;;;;;;;;;6002174;23;20049;-85
2022/05/17 05:07:30;;;;;;;28.52;13.25;;;;;;;;;;6027592;23;20076;-84
2022/05/17 05:09:56;;;;;;;32.00;13.23;;;;;;;;;;6030086;23;20014;-85
2022/05/17 05:12:22;;;;;;;24.45;13.07;;;;;;;;;;6006399;23;20010;-84
2022/05/17 05:14:48;;;;;;;29.52;13.82;;;;;;;;;;6031591;23;20026;-85
2022/05/17 05:17:14;;;;;;;29.88;12.82;;;;;;;;;;6028040;23;20070;-84
2022/05/17 05:19:40;;;;;;;27.52;12.68;;;;;;;;;;6024795;23;20037;-83
2022/05/17 05:22:07;;;;;;;24.50;12.70;;;;;;;;;;6005620;23;20018;-84
2022/05/17 05:24:33;;;;;;;29.40;13.70;;;;;;;;;;6000669;23;20464;-85
2022/05/17 05:26:59;;;;;;;36.28;12.98;;;;;;;;;;6025439;23;20019;-85
2022/05/17 05:29:26;;;;;;;36.00;13.25;;;;;;;;;;6007495;23;20567;-85
2022/05/17 05:31:52;;;;;;;31.67;12.68;;;;;;;;;;6030558;23;20101;-84
2022/05/17 05:34:18;;;;;;;29.70;13.25;;;;;;;;;;6030882;23;20978;-84
2022/05/17 05:36:46;;;;;;;25.15;12.65;;;;;;;;;;6026968;23;20057;-85
2022/05/17 05:39:12;;;;;;;27.65;12.82;;;;;;;;;;6007161;23;20014;-84
2022/05/17 05:41:38;;;;;;;28.35;12.00;;;;;;;;;;6030843;23;20465;-86
2022/05/17 05:44:04;;;;;;;31.30;12.73;;;;;;;;;;6029701;23;20034;-85
2022/05/17 05:46:30;;;;;;;27.60;12.10;;;;;;;;;;6025592;23;20038;-85
2022/05/17 05:48:57;;;;;;;21.15;11.90;;;;;;;;;;6005233;23;20452;-86
2022/05/17 05:51:24;;;;;;;25.40;12.38;;;;;;;;;;6033685;23;20026;-85
2022/05/17 05:53:51;;;;;;;26.88;11.82;;;;;;;;;;6007731;23;20018;-85
2022/05/17 05:56:17;;;;;;;30.00;11.98;;;;;;;;;;6016862;23;20022;-85
2022/05/17 05:58:43;;;;;;;29.00;11.68;;;;;;;;;;6037199;23;20042;-85
2022/05/17 06:01:09;;;;;;;24.92;11.27;;;;;;;;;;6058723;23;20348;-86
2022/05/17 06:03:36;;;;;;;30.17;10.93;;;;;;;;;;6093507;23;20101;-85
2022/05/17 06:06:03;;;;;;;23.42;10.25;;;;;;;;;;6069477;23;20085;-86
2022/05/17 06:08:29;;;;;;;25.15;10.35;;;;;;;;;;6065819;23;20014;-86
2022/05/17 06:10:56;;;;;;;26.73;9.88;;;;;;;;;;6089111;23;20358;-87
2022/05/17 06:13:26;;;;;;;28.13;10.70;;;;;;;;;;6046046;23;20014;-86
2022/05/17 06:15:52;;;;;;;23.50;9.60;;;;;;;;;;6070729;23;20018;-87
2022/05/17 06:18:19;;;;;;;23.70;10.15;;;;;;;;;;6065374;23;20021;-88
2022/05/17 06:20:52;;;;;;;34.22;15.85;;;;;;;;;;6070142;23;20455;-89
2022/05/17 06:23:18;;;;;;;19.08;9.57;;;;;;;;;;6069645;23;20014;-88
2022/05/17 06:25:44;;;;;;;27.42;10.07;;;;;;;;;;6071917;23;20024;-85
2022/05/17 06:28:11;;;;;;;31.02;10.85;;;;;;;;;;6066612;23;20013;-85
2022/05/17 06:30:37;;;;;;;21.63;9.55;;;;;;;;;;6093143;23;20018;-87
2022/05/17 06:33:03;;;;;;;26.90;10.23;;;;;;;;;;6093413;23;20105;-88
2022/05/17 06:35:29;;;;;;;24.13;9.25;;;;;;;;;;6070519;23;20149;-86
2022/05/17 06:37:56;;;;;;;28.30;9.63;;;;;;;;;;6068192;23;20014;-86
2022/05/17 06:40:22;;;;;;;24.65;8.60;;;;;;;;;;6071059;23;20141;-86
2022/05/17 06:42:47;;;;;;;19.85;8.63;;;13.40;99.90;;;;;;6046968;23;20017;-86
2022/05/17 06:45:13;;;;;;;23.30;8.88;;;16.50;99.90;;;;;;6045276;23;20445;-86
2022/05/17 06:47:40;;;;;;;19.05;9.40;;;;;;;;;;6022408;23;20071;-86
2022/05/17 06:50:07;;;;;;;25.60;9.18;;;;;;;;;;6089717;23;20017;-86
2022/05/17 06:52:33;;;;;;;20.83;8.25;;;;;;;;;;6070560;23;20363;-86
2022/05/17 06:55:00;;;;;;;20.83;8.27;;;;;;;;;;6044738;23;20343;-87
2022/05/17 06:57:26;;;;;;;27.05;8.27;;;;;;;;;;6065346;23;20018;-86
2022/05/17 06:59:52;;;;;;;18.33;7.20;;;;;;;;;;6039871;23;20021;-90
2022/05/17 07:02:18;;;;;;;21.00;7.60;;;;;;;;;;6042766;23;20026;-88
2022/05/17 07:04:44;;;;;;;21.52;7.32;;;;;;;;;;6044711;23;20667;-88
2022/05/17 07:07:10;;;;;;;20.92;8.15;;;;;;;;;;6092573;23;20262;-89
2022/05/17 07:09:37;;;;;;;17.48;7.43;;;;;;;;;;6041573;23;20404;-88
2022/05/17 07:14:49;;;;;;;20.85;8.00;;;;;;;;;;6091798;23;20026;-88
2022/05/17 07:17:16;;;;;;;27.08;8.65;;;;;;;;;;6043384;23;20480;-86
2022/05/17 07:19:43;;;;;;;22.65;8.25;;;;;;;;;;6089952;23;20021;-88
2022/05/17 07:22:10;;;;;;;19.88;8.10;;;;;;;;;;6090133;23;20025;-88
2022/05/17 07:24:36;;;;;;;26.15;8.40;;;;;;;;;;6093719;23;20014;-88
2022/05/17 07:27:03;;;;;;;20.20;8.48;;;;;;;;;;6069220;23;20014;-87
2022/05/17 07:29:29;;;;;;;18.95;8.32;;;;;;;;;;6090298;23;20355;-86
2022/05/17 07:31:55;;;;;;;20.92;7.95;;;;;;;;;;6091653;23;20014;-86
2022/05/17 07:34:22;;;;;;;21.92;8.25;;;;;;;;;;6093360;23;20049;-85
2022/05/17 07:36:49;;;;;;;30.25;9.07;;;;;;;;;;6046010;23;20045;-90
2022/05/17 07:39:15;;;;;;;18.55;7.75;;;;;;;;;;6093699;23;20100;-88
2022/05/17 07:41:42;;;;;;;17.90;7.25;;;;;;;;;;6043286;23;20054;-87
2022/05/17 07:44:11;;;;;;;16.05;6.97;;;;;;;;;;6093091;23;20020;-88
2022/05/17 07:46:37;;;;;;;23.58;8.32;;;;;;;;;;6067480;23;20017;-87
2022/05/17 07:49:06;;;;;;;17.55;7.35;;;;;;;;;;6090669;23;20018;-86
2022/05/17 07:51:35;;;;;;;19.20;6.72;;;;;;;;;;6089388;23;20053;-86
2022/05/17 07:54:02;;;;;;;22.23;7.10;;;;;;;;;;6041162;23;20022;-86
2022/05/17 07:56:28;;;;;;;14.63;6.10;;;;;;;;;;6045053;23;20072;-85
2022/05/17 07:58:54;;;;;;;16.73;6.40;;;;;;;;;;6091297;23;20053;-87
2022/05/17 08:01:20;;;;;;;16.38;5.68;;;;;;;;;;6040383;23;20018;-85
2022/05/17 08:03:46;;;;;;;17.65;5.47;;;;;;;;;;6041961;23;20014;-87
2022/05/17 08:06:12;;;;;;;18.00;6.43;;;;;;;;;;6044735;23;20010;-87
2022/05/17 08:08:39;;;;;;;16.58;6.80;;;;;;;;;;6043278;23;20022;-85
2022/05/17 08:11:05;;;;;;;13.52;5.85;;;;;;;;;;6043780;23;20014;-87
2022/05/17 08:13:31;;;;;;;15.18;4.35;;;;;;;;;;6089612;23;20049;-87
2022/05/17 08:15:58;;;;;;;16.55;4.70;;;;;;;;;;6091977;23;20494;-86
2022/05/17 08:18:24;;;;;;;19.45;5.15;;;;;;;;;;6090785;23;20022;-85
2022/05/17 08:20:50;;;;;;;17.95;5.18;;;;;;;;;;6065478;23;20072;-87
2022/05/17 08:23:16;;;;;;;15.45;5.30;;;;;;;;;;6087614;23;20064;-88
2022/05/17 08:28:27;;;;;;;16.02;6.03;;;;;;;;;;6091198;23;20468;-88
2022/05/17 08:30:53;;;;;;;18.83;6.05;;;;;;;;;;6066699;23;20106;-87
2022/05/17 08:33:23;;;;;;;14.43;6.03;;;;;;;;;;6039457;23;20018;-88
2022/05/17 08:35:51;;;;;;;17.88;5.88;;;;;;;;;;6089434;23;20022;-87
2022/05/17 08:38:25;;;;;;;17.42;5.65;;;;;;;;;;6090308;23;20447;-86
2022/05/17 08:41:13;;;;;;;23.13;6.03;;;;;;;;;;6090729;23;20216;-88
2022/05/17 08:43:53;;;;;;;17.85;5.20;;;;;;;;;;6066970;23;20014;-90
2022/05/17 08:46:29;;;;;;;14.80;5.15;;;;;;;;;;6091133;23;20021;-87
2022/05/17 08:49:14;;;;;;;14.73;5.22;;;;;;;;;;6088666;23;20049;-87
2022/05/17 08:51:50;;;;;;;14.05;4.65;;;;;;;;;;6091891;23;20486;-87
2022/05/17 08:54:18;;;;;;;14.52;4.55;;;;;;;;;;6088233;23;20479;-87
2022/05/17 08:56:50;;;;;;;14.77;4.97;;;;;;;;;;6089488;23;20065;-87
2022/05/17 08:59:21;;;;;;;9.95;3.72;;;;;;;;;;6091432;23;20021;-87
2022/05/17 09:01:50;;;;;;;14.10;3.03;;;;;;;;;;6087950;23;20026;-88
2022/05/17 09:04:37;;;;;;;13.32;4.07;;;;;;;;;;6035122;23;20025;-87
2022/05/17 09:07:06;;;;;;;15.20;4.78;;;;;;;;;;5979553;23;20093;-87
2022/05/17 09:09:38;;;;;;;10.18;3.03;;;;;;;;;;6038490;23;20017;-87
2022/05/17 09:12:04;;;;;;;8.18;2.80;;;;;;;;;;6039713;23;20436;-84
2022/05/17 09:14:32;;;;;;;11.35;3.33;;;;;;;;;;6037147;23;20025;-84
2022/05/17 09:16:59;;;;;;;9.75;3.40;;;;;;;;;;6038284;23;20029;-84
2022/05/17 09:19:25;;;;;;;9.52;3.40;;;;;;;;;;6039832;23;20395;-88
2022/05/17 09:21:53;;;;;;;8.82;2.83;;;;;;;;;;6041086;23;20025;-85
2022/05/17 09:24:21;;;;;;;11.35;2.28;;;;;;;;;;6014813;23;20092;-84
2022/05/17 09:26:52;;;;;;;12.70;2.95;;;;;;;;;;6034418;23;20256;-84
2022/05/17 09:29:21;;;;;;;10.90;3.13;;;;;;;;;;6039041;23;20025;-84
2022/05/17 09:32:01;;;;;;;10.65;2.80;;;;;;;;;;6062650;23;20374;-87
2022/05/17 09:34:29;;;;;;;12.18;2.47;;;;;;;;;;6036841;23;20033;-87
2022/05/17 09:36:57;;;;;;;11.55;3.13;;;;;;;;;;6034349;23;20018;-87
2022/05/17 09:39:26;;;;;;;11.43;3.10;;;;;;;;;;6038833;23;20026;-86
2022/05/17 09:41:52;;;;;;;13.02;2.35;;;;;;;;;;6036661;23;20022;-89
2022/05/17 09:44:23;;;;;;;11.93;2.70;;;;;;;;;;6041370;23;20543;-84
2022/05/17 09:46:51;;;;;;;14.90;3.10;;;;;;;;;;6034466;23;20018;-85
2022/05/17 09:55:20;;;;;;;8.63;2.15;;;;;;;;;;6064116;23;20057;-85
2022/05/17 09:58:06;;;;;;;15.40;2.67;;;;;;;;;;6037535;23;20025;-85
2022/05/17 10:00:41;;;;;;;13.55;2.20;;;;;;;;;;6054054;23;20029;-85
2022/05/17 10:03:15;;;;;;;11.32;2.42;;;;;;;;;;6068243;23;20013;-86
2022/05/17 10:05:43;;;;;;;13.60;2.33;;;;;;;;;;6067318;23;20359;-88
2022/05/17 10:08:15;;;;;;;7.45;1.67;;;;;;;;;;6065914;23;20014;-85
2022/05/17 10:10:44;;;;;;;7.10;1.75;;;16.50;99.90;;;;;;6068042;23;20018;-86
2022/05/17 10:13:25;;;;;;;10.93;2.22;;;20.60;99.90;;;;;;6069114;23;20387;-87
2022/05/17 10:15:57;;;;;;;9.20;2.13;;;20.60;99.90;;;;;;6063108;23;20021;-86
2022/05/17 10:18:45;;;;;;;11.00;2.15;;;20.60;99.90;;;;;;6065396;23;20057;-86
2022/05/17 10:21:14;;;;;;;10.73;2.10;;;;;;;;;;6067750;23;20101;-85
2022/05/17 10:23:55;;;;;;;9.63;2.50;;;;;;;;;;6067821;23;20010;-85
2022/05/17 10:26:29;;;;;;;10.93;2.10;;;20.70;99.90;;;;;;6067641;23;20025;-86
2022/05/17 10:29:12;;;;;;;6.43;2.00;;;20.80;99.90;;;;;;6065378;23;20020;-87
2022/05/17 10:31:54;;;;;;;9.13;1.63;;;20.90;99.90;;;;;;6092292;23;20022;-86
2022/05/17 10:34:49;;;;;;;;;;;20.90;99.90;;;;;;6070360;23;20048;-87
2022/05/17 10:37:19;;;;;;;10.57;2.55;;;;;;;;;;6035957;23;19913;-88
2022/05/17 10:40:02;;;;;;;12.80;2.40;;;;;;;;;;6069136;23;20343;-87
2022/05/17 10:42:28;;;;;;;9.93;2.10;;;;;;;;;;6070236;23;20522;-86
2022/05/17 10:44:56;;;;;;;8.65;1.80;;;;;;;;;;6076515;23;20025;-90
2022/05/17 10:47:33;;;;;;;6.78;1.88;;;;;;;;;;6054033;23;20014;-87
2022/05/17 10:50:06;;;;;;;6.90;1.60;;;;;;;;;;6092647;23;20010;-87
2022/05/17 10:52:53;;;;;;;;;;;20.90;99.90;;;;;;6085011;23;20010;-88
2022/05/17 10:55:29;;;;;;;9.77;1.83;;;21.40;99.90;;;;;;6071452;23;19913;-86
2022/05/17 10:57:59;;;;;;;9.10;1.80;;;21.50;99.90;;;;;;6074653;23;20014;-88
2022/05/17 11:00:52;;;;;;;7.95;1.92;;;;;;;;;;6068690;23;20075;-87
2022/05/17 11:03:44;;;;;;;10.52;2.25;;;;;;;;;;6067249;23;20022;-88
2022/05/17 11:06:26;;;;;;;10.10;2.08;;;;;;;;;;6071666;23;20041;-88
2022/05/17 11:08:54;;;;;;;7.32;2.00;;;;;;;;;;6069279;23;20785;-89
2022/05/17 11:11:21;;;;;;;8.90;2.35;;;;;;;;;;6072001;23;20021;-88
2022/05/17 11:13:58;;;;;;;9.63;1.95;;;;;;;;;;6073250;23;20459;-87
2022/05/17 11:16:31;;;;;;;8.40;2.00;;;;;;;;;;6070125;23;20065;-85
2022/05/17 11:19:04;;;;;;;13.57;2.28;;;;;;;;;;6067451;23;20014;-85
2022/05/17 11:21:32;;;;;;;10.63;2.25;;;;;;;;;;6068407;23;20018;-86
2022/05/17 11:24:05;;;;;;;10.48;2.22;;;;;;;;;;6066954;23;20069;-87
2022/05/17 11:26:40;;;;;;;8.98;1.85;;;;;;;;;;6068010;23;20395;-86
2022/05/17 11:29:12;;;;;;;9.02;1.45;;;;;;;;;;6065927;23;20049;-85
2022/05/17 11:31:54;;;;;;;9.27;2.25;;;;;;;;;;6066999;23;20018;-89
2022/05/17 11:34:26;;;;;;;8.65;1.70;;;;;;;;;;6068536;23;20018;-86
2022/05/17 11:36:53;;;;;;;10.00;1.70;;;;;;;;;;6067752;23;20023;-85
2022/05/17 11:39:31;;;;;;;6.80;1.77;;;;;;;;;;6063930;23;20072;-87
2022/05/17 11:42:10;;;;;;;9.70;1.98;;;;;;;;;;6061827;23;20053;-86
2022/05/17 11:44:41;;;;;;;12.50;2.10;;;;;;;;;;6067774;23;20024;-86
2022/05/17 11:47:29;;;;;;;8.52;1.70;;;21.50;99.90;;;;;;6065504;23;20412;-85
2022/05/17 11:50:18;;;;;;;6.15;1.60;;;22.40;94.90;;;;;;6066258;23;20060;-86
2022/05/17 11:52:47;;;;;;;7.10;1.77;;;22.50;93.80;;;;;;6063392;23;20018;-86
2022/05/17 11:55:25;;;;;;;6.32;1.95;;;22.60;88.50;;;;;;6066150;23;20068;-85
2022/05/17 11:57:51;;;;;;;7.57;2.30;;;;;;;;;;6065388;23;20082;-85
2022/05/17 12:03:51;;;;;;;13.57;3.10;;;;;;;;;;6181126;23;20281;-86
2022/05/17 12:06:28;;;;;;;12.15;2.72;;;;;;;;;;6133181;23;20017;-88
2022/05/17 12:08:55;;;;;;;12.00;2.60;;;;;;;;;;6129772;23;20015;-88
2022/05/17 12:11:25;;;;;;;10.13;2.00;;;;;;;;;;6130776;23;20024;-87
2022/05/17 12:13:56;;;;;;;14.85;2.53;;;;;;;;;;6128396;23;20028;-86
2022/05/17 12:16:23;;;;;;;7.47;2.25;;;;;;;;;;6134133;23;20024;-88
2022/05/17 12:18:59;;;;;;;11.32;2.95;;;;;;;;;;6132362;23;20096;-87
2022/05/17 12:21:34;;;;;;;13.80;3.40;;;;;;;;;;6130009;23;20013;-86
2022/05/17 12:24:19;;;;;;;12.10;2.90;;;;;;;;;;6129568;23;20040;-86
2022/05/17 12:26:55;;;;;;;11.45;2.47;;;;;;;;;;6129165;23;20009;-88
2022/05/17 12:32:19;;;;;;;13.63;3.53;;;;;;;;;;6154348;23;20067;-89
2022/05/17 12:34:50;;;;;;;11.80;2.90;;;;;;;;;;6130504;23;20072;-85
2022/05/17 12:37:17;;;;;;;15.27;3.17;;;;;;;;;;6128930;23;20052;-87
2022/05/17 12:47:02;;;;;;;;;;;;;;;;;;;;;
2022/05/17 12:56:54;;;;;;;;;;;;;;;;;;;;;
2022/05/17 13:03:57;;;;;;;;;;;;;;;;;;;;;
2022/05/17 13:14:21;;;;;;;;;;;;;;;;;;;;;
2022/05/17 13:49:08;;;;;;;;;;;;;;;;;;;;;
2022/05/17 13:52:24;;;;;;;;;;;;;;;;;;;;;
2022/05/17 13:55:51;;;;;;;;;;;;;;;;;;;;;
2022/05/17 14:14:54;;;;;;;11.15;3.63;;;;;;;;;;6144204;23;20021;-84
2022/05/17 14:17:27;;;;;;;9.55;3.72;;;;;;;;;;6154031;23;20017;-85
2022/05/17 14:19:58;;;;;;;9.88;3.53;;;;;;;;;;6130971;23;20056;-86
2022/05/17 14:22:29;;;;;;;10.80;3.65;;;;;;;;;;6126314;23;20017;-89
2022/05/17 14:24:55;;;;;;;12.80;3.25;;;;;;;;;;6131421;23;20020;-85
2022/05/17 14:27:22;;;;;;;12.88;3.33;;;;;;;;;;6128043;23;20013;-85
2022/05/17 14:29:48;;;;;;;11.15;3.15;;;;;;;;;;6105749;23;20504;-86
2022/05/17 14:32:15;;;;;;;11.90;3.08;;;;;;;;;;6105581;23;20020;-84
2022/05/17 14:34:42;;;;;;;9.23;2.60;;;;;;;;;;6132319;23;20017;-86
2022/05/17 14:37:09;;;;;;;14.70;3.03;;;;;;;;;;6137720;23;20020;-85
2022/05/17 14:39:36;;;;;;;10.70;2.95;;;;;;;;;;6133071;23;20020;-85
2022/05/17 14:42:02;;;;;;;9.43;2.67;;;;;;;;;;6106001;23;20040;-85
2022/05/17 14:44:29;;;;;;;11.25;3.10;;;;;;;;;;6132928;23;20020;-85
2022/05/17 14:47:16;;;;;;;11.10;2.95;;;;;;;;;;6131956;23;20044;-85
2022/05/17 14:49:45;;;;;;;9.55;2.50;;;;;;;;;;6133482;23;20401;-85
2022/05/17 14:52:11;;;;;;;9.10;2.80;;;;;;;;;;6131170;23;20024;-84
2022/05/17 14:54:37;;;;;;;9.00;2.53;;;;;;;;;;6106271;23;20013;-84
2022/05/17 14:57:04;;;;;;;10.23;2.70;;;;;;;;;;6129943;23;20121;-85
2022/05/17 14:59:30;;;;;;;11.15;2.75;;;;;;;;;;6106226;23;20024;-84
2022/05/17 15:01:59;;;;;;;6.68;2.55;;;;;;;;;;6131909;23;20013;-85
2022/05/17 15:04:27;;;;;;;9.30;2.80;;;;;;;;;;6159363;23;20079;-85
2022/05/17 15:06:56;;;;;;;11.13;2.95;;;;;;;;;;6156592;23;20012;-85
2022/05/17 15:09:25;;;;;;;12.82;3.40;;;;;;;;;;6152715;23;20009;-85
2022/05/17 15:11:53;;;;;;;7.88;3.20;;;;;;;;;;6158122;23;20555;-84
2022/05/17 15:14:20;;;;;;;8.95;2.42;;;;;;;;;;6155760;23;20052;-85
2022/05/17 15:16:46;;;;;;;15.07;3.60;;;;;;;;;;6156787;23;20024;-87
2022/05/17 15:19:13;;;;;;;10.70;2.63;;;;;;;;;;6157206;23;20407;-84
2022/05/17 15:21:41;;;;;;;6.55;2.30;;;;;;;;;;6132781;23;20036;-85
2022/05/17 15:24:08;;;;;;;8.05;2.70;;;;;;;;;;6156358;23;20055;-84
2022/05/17 15:26:34;;;;;;;11.75;2.80;;;;;;;;;;6132660;23;20028;-86
2022/05/17 15:29:02;;;;;;;9.80;2.38;;;;;;;;;;6131289;23;20013;-86
2022/05/17 15:31:29;;;;;;;11.48;2.70;;;;;;;;;;6157835;23;20017;-84
2022/05/17 15:33:58;;;;;;;11.23;2.47;;;;;;;;;;6153923;23;20021;-87
2022/05/17 15:36:25;;;;;;;6.35;2.85;;;;;;;;;;6155523;23;20443;-85
2022/05/17 15:38:51;;;;;;;8.00;2.80;;;;;;;;;;6158599;23;20017;-88
2022/05/17 15:41:20;;;;;;;9.77;3.03;;;;;;;;;;6156842;23;20013;-85
2022/05/17 15:43:46;;;;;;;11.00;3.47;;;;;;;;;;6155736;23;20009;-84
2022/05/17 15:46:20;;;;;;;12.85;3.08;;;;;;;;;;6155703;23;20056;-85
2022/05/17 15:54:18;;;;;;;11.98;2.80;;;;;;;;;;6154946;23;20021;-86
2022/05/17 15:56:45;;;;;;;9.75;3.08;;;;;;;;;;6148797;23;20021;-87
2022/05/17 15:59:13;;;;;;;10.38;2.65;;;;;;;;;;6146825;23;20837;-85